createdAt,value
2019-06-07T00:00:27.183Z,10.99
2019-06-07T00:01:08.440Z,11.02
2019-06-07T00:02:05.905Z,11.02
2019-06-07T00:03:05.443Z,11.06
2019-06-07T00:04:08.563Z,10.99
2019-06-07T00:05:05.443Z,11.03
2019-06-07T00:06:07.089Z,11.02
2019-06-07T00:07:08.581Z,10.91
2019-06-07T00:08:10.805Z,11.00
2019-06-07T00:09:08.126Z,10.92
2019-06-07T00:10:06.888Z,10.91
2019-06-07T00:11:07.271Z,10.97
2019-06-07T00:12:08.909Z,10.89
2019-06-07T00:13:05.328Z,10.94
2019-06-07T00:14:05.318Z,10.88
2019-06-07T00:15:05.324Z,10.89
2019-06-07T00:16:05.313Z,10.86
2019-06-07T00:17:05.300Z,10.88
2019-06-07T00:18:05.280Z,10.88
2019-06-07T00:19:05.264Z,10.89
2019-06-07T00:20:05.281Z,10.88
2019-06-07T00:21:05.244Z,10.84
2019-06-07T00:22:17.635Z,10.92
2019-06-07T00:23:06.225Z,10.86
2019-06-07T00:24:05.211Z,10.88
2019-06-07T00:25:05.197Z,10.88
2019-06-07T00:26:05.206Z,10.74
2019-06-07T00:27:05.184Z,10.79
2019-06-07T00:28:05.170Z,10.76
2019-06-07T00:29:05.167Z,10.78
2019-06-07T00:30:29.509Z,10.79
2019-06-07T00:31:06.158Z,10.71
2019-06-07T00:32:05.139Z,10.68
2019-06-07T00:33:05.121Z,10.64
2019-06-07T00:34:05.105Z,10.61
2019-06-07T00:35:05.092Z,10.68
2019-06-07T00:36:05.103Z,10.63
2019-06-07T00:37:05.073Z,10.67
2019-06-07T00:38:05.058Z,10.61
2019-06-07T00:39:05.045Z,10.61
2019-06-07T00:40:24.072Z,10.55
2019-06-07T00:41:06.048Z,10.59
2019-06-07T00:42:05.013Z,10.48
2019-06-07T00:43:05.000Z,10.52
2019-06-07T00:44:05.008Z,10.60
2019-06-07T00:45:04.981Z,10.45
2019-06-07T00:46:04.986Z,10.47
2019-06-07T00:47:04.963Z,10.52
2019-06-07T00:48:04.987Z,10.55
2019-06-07T00:49:04.935Z,10.45
2019-06-07T00:50:04.924Z,10.45
2019-06-07T00:51:04.938Z,10.51
2019-06-07T00:52:04.903Z,10.41
2019-06-07T00:53:16.824Z,10.44
2019-06-07T00:54:05.879Z,10.44
2019-06-07T00:55:04.869Z,10.48
2019-06-07T00:56:04.873Z,10.40
2019-06-07T00:57:04.861Z,10.45
2019-06-07T00:58:04.840Z,10.40
2019-06-07T00:59:11.276Z,10.36
2019-06-07T01:00:05.813Z,10.34
2019-06-07T01:01:04.804Z,10.34
2019-06-07T01:02:05.498Z,10.29
2019-06-07T01:03:04.792Z,10.34
2019-06-07T01:04:04.771Z,10.32
2019-06-07T01:05:04.785Z,10.27
2019-06-07T01:06:04.754Z,10.26
2019-06-07T01:07:04.753Z,10.27
2019-06-07T01:08:04.729Z,10.26
2019-06-07T01:09:04.719Z,10.23
2019-06-07T01:10:04.705Z,10.27
2019-06-07T01:11:04.700Z,10.22
2019-06-07T01:12:04.710Z,10.25
2019-06-07T01:13:04.671Z,10.22
2019-06-07T01:14:04.709Z,10.32
2019-06-07T01:15:04.649Z,10.25
2019-06-07T01:16:04.643Z,10.12
2019-06-07T01:17:22.735Z,10.18
2019-06-07T01:18:37.035Z,10.14
2019-06-07T01:19:05.606Z,10.22
2019-06-07T01:20:04.594Z,10.08
2019-06-07T01:21:04.584Z,10.11
2019-06-07T01:22:04.603Z,10.22
2019-06-07T01:23:04.567Z,10.17
2019-06-07T01:24:11.916Z,10.12
2019-06-07T01:25:05.554Z,10.11
2019-06-07T01:26:04.539Z,10.14
2019-06-07T01:27:04.521Z,10.09
2019-06-07T01:28:04.527Z,10.08
2019-06-07T01:29:04.496Z,10.09
2019-06-07T01:30:04.484Z,10.09
2019-06-07T01:31:04.485Z,10.14
2019-06-07T01:32:04.477Z,10.09
2019-06-07T01:33:04.449Z,10.05
2019-06-07T01:34:04.440Z,10.04
2019-06-07T01:35:04.429Z,10.04
2019-06-07T01:36:04.414Z,10.02
2019-06-07T01:37:04.427Z,10.07
2019-06-07T01:38:04.397Z,9.99
2019-06-07T01:39:04.386Z,10.01
2019-06-07T01:40:04.373Z,9.99
2019-06-07T01:41:04.364Z,10.04
2019-06-07T01:42:04.566Z,10.02
2019-06-07T01:43:04.365Z,10.02
2019-06-07T01:44:04.333Z,10.02
2019-06-07T01:45:04.317Z,10.04
2019-06-07T01:46:04.305Z,9.96
2019-06-07T01:47:04.320Z,10.01
2019-06-07T01:48:04.284Z,9.94
2019-06-07T01:49:04.279Z,10.01
2019-06-07T01:50:04.293Z,9.94
2019-06-07T01:51:05.299Z,10.05
2019-06-07T01:52:04.238Z,10.04
2019-06-07T01:53:04.243Z,9.93
2019-06-07T01:54:48.512Z,9.93
2019-06-07T01:55:05.217Z,9.97
2019-06-07T01:56:04.199Z,9.99
2019-06-07T01:57:04.183Z,10.02
2019-06-07T01:58:04.193Z,9.91
2019-06-07T01:59:04.168Z,9.87
2019-06-07T02:00:04.210Z,9.99
2019-06-07T02:01:04.137Z,9.94
2019-06-07T02:02:04.134Z,10.02
2019-06-07T02:03:04.134Z,9.94
2019-06-07T02:04:04.106Z,9.96
2019-06-07T02:05:04.092Z,9.96
2019-06-07T02:06:04.083Z,9.96
2019-06-07T02:07:04.074Z,9.91
2019-06-07T02:08:04.085Z,9.99
2019-06-07T02:09:04.063Z,10.01
2019-06-07T02:10:04.047Z,9.94
2019-06-07T02:11:04.039Z,9.91
2019-06-07T02:12:24.794Z,9.89
2019-06-07T02:13:05.022Z,9.86
2019-06-07T02:14:04.007Z,9.84
2019-06-07T02:15:04.122Z,9.87
2019-06-07T02:16:03.988Z,9.81
2019-06-07T02:17:03.961Z,9.78
2019-06-07T02:18:03.988Z,9.78
2019-06-07T02:19:04.125Z,9.84
2019-06-07T02:20:03.930Z,9.81
2019-06-07T02:21:03.917Z,9.86
2019-06-07T02:22:03.906Z,9.96
2019-06-07T02:23:03.949Z,9.87
2019-06-07T02:24:03.890Z,9.87
2019-06-07T02:25:35.050Z,9.94
2019-06-07T02:26:04.871Z,9.90
2019-06-07T02:27:03.850Z,9.97
2019-06-07T02:28:26.523Z,10.04
2019-06-07T02:29:04.846Z,10.01
2019-06-07T02:30:35.322Z,10.01
2019-06-07T02:31:04.805Z,9.97
2019-06-07T02:32:03.814Z,10.05
2019-06-07T02:33:03.802Z,10.01
2019-06-07T02:34:03.776Z,9.94
2019-06-07T02:35:03.761Z,9.99
2019-06-07T02:36:03.750Z,9.99
2019-06-07T02:37:03.738Z,10.02
2019-06-07T02:38:03.743Z,10.01
2019-06-07T02:39:03.743Z,10.02
2019-06-07T02:40:03.703Z,10.01
2019-06-07T02:41:03.704Z,10.02
2019-06-07T02:42:03.691Z,9.97
2019-06-07T02:43:03.677Z,9.99
2019-06-07T02:44:03.695Z,9.99
2019-06-07T02:45:03.658Z,10.02
2019-06-07T02:46:24.248Z,10.01
2019-06-07T02:47:04.632Z,10.01
2019-06-07T02:48:03.618Z,10.01
2019-06-07T02:49:03.623Z,10.01
2019-06-07T02:50:03.609Z,10.02
2019-06-07T02:51:03.581Z,9.94
2019-06-07T02:52:03.581Z,10.01
2019-06-07T02:53:03.560Z,10.04
2019-06-07T02:54:03.563Z,10.01
2019-06-07T02:55:03.538Z,10.07
2019-06-07T02:57:04.514Z,9.94
2019-06-07T02:58:03.518Z,9.94
2019-06-07T02:59:03.522Z,9.94
2019-06-07T03:00:26.995Z,10.04
2019-06-07T03:01:09.128Z,9.97
2019-06-07T03:02:04.471Z,9.99
2019-06-07T03:03:03.446Z,10.01
2019-06-07T03:04:03.456Z,10.01
2019-06-07T03:05:03.423Z,9.99
2019-06-07T03:06:03.427Z,10.01
2019-06-07T03:07:03.404Z,10.02
2019-06-07T03:08:03.401Z,9.94
2019-06-07T03:09:03.398Z,9.99
2019-06-07T03:10:03.370Z,10.02
2019-06-07T03:11:03.370Z,9.94
2019-06-07T03:12:03.345Z,10.04
2019-06-07T03:13:03.341Z,9.94
2019-06-07T03:14:03.342Z,9.94
2019-06-07T03:15:03.334Z,9.96
2019-06-07T03:16:03.303Z,10.01
2019-06-07T03:17:03.289Z,9.94
2019-06-07T03:18:03.289Z,9.90
2019-06-07T03:19:03.278Z,9.99
2019-06-07T03:20:03.277Z,9.89
2019-06-07T03:21:05.664Z,10.02
2019-06-07T03:22:03.236Z,9.86
2019-06-07T03:23:03.223Z,9.89
2019-06-07T03:24:03.211Z,9.91
2019-06-07T03:25:03.234Z,9.94
2019-06-07T03:26:03.203Z,9.90
2019-06-07T03:28:04.164Z,9.89
2019-06-07T03:29:03.159Z,9.91
2019-06-07T03:30:35.026Z,9.84
2019-06-07T03:31:04.162Z,9.89
2019-06-07T03:32:03.152Z,9.81
2019-06-07T03:33:03.113Z,9.81
2019-06-07T03:34:03.099Z,9.86
2019-06-07T03:35:03.105Z,9.83
2019-06-07T03:36:22.868Z,9.86
2019-06-07T03:37:04.072Z,9.87
2019-06-07T03:38:03.060Z,9.94
2019-06-07T03:39:03.049Z,9.90
2019-06-07T03:40:03.062Z,9.84
2019-06-07T03:41:03.037Z,9.99
2019-06-07T03:42:06.701Z,9.97
2019-06-07T03:43:03.999Z,9.91
2019-06-07T03:44:02.986Z,9.96
2019-06-07T03:45:02.992Z,9.97
2019-06-07T03:46:02.966Z,10.01
2019-06-07T03:47:03.000Z,10.01
2019-06-07T03:48:02.939Z,10.02
2019-06-07T03:49:02.953Z,9.93
2019-06-07T03:50:02.941Z,10.07
2019-06-07T03:51:05.007Z,10.11
2019-06-07T03:52:03.896Z,10.02
2019-06-07T03:53:02.883Z,10.12
2019-06-07T03:54:02.883Z,10.12
2019-06-07T03:55:02.889Z,10.14
2019-06-07T03:56:03.044Z,10.17
2019-06-07T03:57:02.837Z,10.18
2019-06-07T03:58:31.389Z,10.18
2019-06-07T03:59:03.816Z,10.12
2019-06-07T04:00:02.805Z,10.22
2019-06-07T04:01:02.816Z,10.22
2019-06-07T04:02:02.787Z,10.25
2019-06-07T04:03:02.778Z,10.25
2019-06-07T04:04:02.761Z,10.22
2019-06-07T04:05:02.764Z,10.29
2019-06-07T04:06:02.803Z,10.23
2019-06-07T04:07:02.748Z,10.23
2019-06-07T04:08:02.719Z,10.25
2019-06-07T04:09:02.707Z,10.38
2019-06-07T04:10:02.718Z,10.36
2019-06-07T04:11:02.701Z,10.27
2019-06-07T04:12:02.689Z,10.34
2019-06-07T04:13:02.666Z,10.40
2019-06-07T04:14:02.652Z,10.38
2019-06-07T04:15:02.643Z,10.34
2019-06-07T04:16:02.648Z,10.30
2019-06-07T04:17:02.615Z,10.36
2019-06-07T04:18:04.123Z,10.33
2019-06-07T04:19:02.591Z,10.36
2019-06-07T04:20:03.065Z,10.34
2019-06-07T04:21:02.587Z,10.33
2019-06-07T04:22:02.587Z,10.27
2019-06-07T04:23:02.549Z,10.34
2019-06-07T04:24:02.537Z,10.40
2019-06-07T04:25:02.537Z,10.30
2019-06-07T04:26:02.528Z,10.32
2019-06-07T04:27:02.525Z,10.27
2019-06-07T04:28:02.492Z,10.29
2019-06-07T04:29:32.368Z,10.27
2019-06-07T04:30:07.901Z,10.32
2019-06-07T04:31:02.462Z,10.26
2019-06-07T04:32:04.337Z,10.23
2019-06-07T04:33:02.434Z,10.20
2019-06-07T04:34:02.427Z,10.23
2019-06-07T04:35:02.416Z,10.32
2019-06-07T04:36:02.399Z,10.33
2019-06-07T04:37:02.425Z,10.26
2019-06-07T04:38:02.380Z,10.33
2019-06-07T04:39:02.367Z,10.30
2019-06-07T04:40:02.361Z,10.40
2019-06-07T04:41:02.345Z,10.32
2019-06-07T04:42:02.357Z,10.33
2019-06-07T04:43:02.329Z,10.38
2019-06-07T04:44:02.311Z,10.42
2019-06-07T04:45:02.322Z,10.40
2019-06-07T04:46:02.292Z,10.45
2019-06-07T04:47:02.294Z,10.44
2019-06-07T04:48:02.266Z,10.41
2019-06-07T04:49:02.268Z,10.47
2019-06-07T04:50:02.246Z,10.52
2019-06-07T04:51:02.240Z,10.48
2019-06-07T04:52:02.251Z,10.47
2019-06-07T04:53:02.217Z,10.61
2019-06-07T04:54:02.197Z,10.52
2019-06-07T04:55:02.190Z,10.55
2019-06-07T04:56:02.188Z,10.45
2019-06-07T04:57:02.181Z,10.59
2019-06-07T04:58:02.162Z,10.61
2019-06-07T04:59:02.156Z,10.67
2019-06-07T05:00:12.963Z,10.64
2019-06-07T05:01:03.902Z,10.64
2019-06-07T05:02:02.138Z,10.67
2019-06-07T05:03:02.099Z,10.59
2019-06-07T05:04:02.137Z,10.63
2019-06-07T05:05:02.079Z,10.59
2019-06-07T05:06:02.076Z,10.60
2019-06-07T05:07:02.081Z,10.63
2019-06-07T05:08:07.393Z,10.64
2019-06-07T05:09:03.039Z,10.66
2019-06-07T05:10:02.054Z,10.66
2019-06-07T05:11:02.011Z,10.66
2019-06-07T05:12:02.022Z,10.66
2019-06-07T05:13:01.988Z,10.68
2019-06-07T05:14:01.979Z,10.76
2019-06-07T05:15:01.967Z,10.73
2019-06-07T05:16:01.967Z,10.81
2019-06-07T05:17:01.964Z,10.70
2019-06-07T05:18:01.956Z,10.81
2019-06-07T05:19:01.924Z,10.82
2019-06-07T05:20:01.909Z,10.84
2019-06-07T05:21:01.900Z,10.84
2019-06-07T05:22:04.886Z,10.86
2019-06-07T05:23:01.892Z,10.91
2019-06-07T05:24:09.642Z,10.88
2019-06-07T05:25:02.863Z,10.89
2019-06-07T05:26:01.844Z,10.92
2019-06-07T05:27:01.839Z,10.91
2019-06-07T05:28:01.847Z,10.91
2019-06-07T05:29:01.821Z,11.06
2019-06-07T05:30:35.951Z,11.03
2019-06-07T05:31:05.554Z,11.09
2019-06-07T05:32:01.781Z,11.09
2019-06-07T05:33:01.795Z,11.17
2019-06-07T05:34:01.786Z,11.17
2019-06-07T05:35:01.789Z,11.21
2019-06-07T05:36:01.755Z,11.28
2019-06-07T05:37:11.650Z,11.32
2019-06-07T05:38:02.735Z,11.25
2019-06-07T05:39:01.694Z,11.29
2019-06-07T05:40:01.693Z,11.29
2019-06-07T05:41:01.697Z,11.19
2019-06-07T05:42:01.664Z,11.24
2019-06-07T05:43:01.688Z,11.32
2019-06-07T05:44:11.984Z,11.22
2019-06-07T05:45:02.637Z,11.35
2019-06-07T05:46:01.633Z,11.35
2019-06-07T05:47:01.626Z,11.33
2019-06-07T05:48:02.737Z,11.40
2019-06-07T05:49:01.615Z,11.42
2019-06-07T05:50:01.622Z,11.42
2019-06-07T05:51:01.570Z,11.39
2019-06-07T05:52:01.583Z,11.40
2019-06-07T05:53:01.537Z,11.40
2019-06-07T05:54:01.556Z,11.36
2019-06-07T05:55:01.595Z,11.44
2019-06-07T05:56:01.516Z,11.51
2019-06-07T05:57:01.504Z,11.47
2019-06-07T05:58:01.485Z,11.47
2019-06-07T05:59:01.503Z,11.49
2019-06-07T06:00:01.486Z,11.55
2019-06-07T06:01:41.666Z,11.51
2019-06-07T06:02:15.373Z,11.55
2019-06-07T06:03:05.706Z,11.64
2019-06-07T06:04:01.444Z,11.61
2019-06-07T06:05:01.484Z,11.57
2019-06-07T06:06:01.409Z,11.62
2019-06-07T06:07:01.389Z,11.70
2019-06-07T06:08:01.410Z,11.61
2019-06-07T06:09:13.193Z,11.67
2019-06-07T06:10:02.347Z,11.80
2019-06-07T06:11:01.414Z,11.75
2019-06-07T06:12:02.533Z,11.75
2019-06-07T06:13:01.328Z,11.85
2019-06-07T06:14:07.711Z,11.86
2019-06-07T06:15:02.304Z,11.76
2019-06-07T06:16:02.513Z,11.85
2019-06-07T06:17:01.268Z,11.91
2019-06-07T06:18:01.262Z,11.82
2019-06-07T06:19:01.272Z,11.95
2019-06-07T06:20:01.240Z,11.95
2019-06-07T06:21:16.121Z,12.04
2019-06-07T06:22:02.234Z,12.01
2019-06-07T06:23:01.229Z,11.99
2019-06-07T06:24:01.236Z,12.04
2019-06-07T06:25:30.828Z,12.09
2019-06-07T06:26:02.168Z,12.02
2019-06-07T06:27:28.228Z,12.07
2019-06-07T06:28:11.795Z,12.14
2019-06-07T06:29:02.168Z,12.19
2019-06-07T06:30:01.145Z,12.16
2019-06-07T06:31:01.129Z,12.21
2019-06-07T06:32:40.596Z,12.21
2019-06-07T06:33:02.090Z,12.17
2019-06-07T06:34:01.083Z,12.31
2019-06-07T06:35:01.093Z,12.14
2019-06-07T06:36:01.062Z,12.23
2019-06-07T06:37:01.050Z,12.27
2019-06-07T06:38:01.053Z,12.23
2019-06-07T06:39:01.024Z,12.24
2019-06-07T06:40:01.037Z,12.24
2019-06-07T06:41:15.487Z,12.21
2019-06-07T06:42:03.947Z,12.17
2019-06-07T06:43:00.984Z,12.32
2019-06-07T06:44:00.975Z,12.37
2019-06-07T06:45:01.006Z,12.46
2019-06-07T06:46:00.953Z,12.35
2019-06-07T06:47:00.938Z,12.50
2019-06-07T06:48:00.934Z,12.46
2019-06-07T06:49:00.934Z,12.54
2019-06-07T06:50:00.929Z,12.54
2019-06-07T06:51:00.909Z,12.62
2019-06-07T06:52:00.894Z,12.59
2019-06-07T06:53:00.874Z,12.65
2019-06-07T06:54:00.865Z,12.71
2019-06-07T06:55:01.382Z,12.64
2019-06-07T06:56:00.867Z,12.67
2019-06-07T06:57:18.135Z,12.72
2019-06-07T06:58:01.816Z,12.67
2019-06-07T06:59:35.249Z,12.70
2019-06-07T07:00:01.818Z,12.67
2019-06-07T07:01:06.680Z,12.71
2019-06-07T07:02:01.772Z,12.74
2019-06-07T07:03:47.182Z,12.79
2019-06-07T07:04:12.060Z,12.79
2019-06-07T07:05:01.758Z,12.92
2019-06-07T07:06:24.584Z,12.74
2019-06-07T07:07:01.723Z,12.79
2019-06-07T07:08:00.708Z,12.83
2019-06-07T07:09:00.695Z,12.87
2019-06-07T07:10:00.696Z,12.92
2019-06-07T07:11:00.701Z,12.79
2019-06-07T07:12:11.086Z,12.83
2019-06-07T07:13:01.671Z,12.89
2019-06-07T07:14:00.644Z,12.86
2019-06-07T07:15:00.663Z,12.96
2019-06-07T07:16:00.669Z,12.90
2019-06-07T07:17:00.613Z,12.97
2019-06-07T07:18:08.380Z,13.00
2019-06-07T07:19:01.577Z,13.00
2019-06-07T07:20:00.599Z,13.03
2019-06-07T07:21:00.588Z,13.05
2019-06-07T07:22:00.784Z,13.00
2019-06-07T07:23:00.543Z,13.04
2019-06-07T07:24:20.390Z,13.08
2019-06-07T07:25:01.513Z,13.12
2019-06-07T07:26:00.518Z,13.08
2019-06-07T07:27:00.501Z,13.10
2019-06-07T07:28:00.482Z,13.19
2019-06-07T07:29:00.479Z,13.15
2019-06-07T07:30:34.653Z,13.28
2019-06-07T07:31:01.468Z,13.26
2019-06-07T07:32:00.436Z,13.26
2019-06-07T07:33:00.424Z,13.26
2019-06-07T07:34:31.032Z,13.23
2019-06-07T07:35:01.404Z,13.29
2019-06-07T07:36:19.108Z,13.20
2019-06-07T07:37:01.396Z,13.28
2019-06-07T07:38:00.391Z,13.33
2019-06-07T07:39:05.112Z,13.30
2019-06-07T07:40:21.490Z,13.42
2019-06-07T07:41:13.889Z,13.28
2019-06-07T07:42:20.236Z,13.33
2019-06-07T07:43:01.321Z,13.42
2019-06-07T07:44:06.604Z,13.41
2019-06-07T07:45:01.284Z,13.46
2019-06-07T07:46:03.115Z,13.38
2019-06-07T07:47:01.276Z,13.52
2019-06-07T07:48:14.767Z,13.45
2019-06-07T07:49:01.239Z,13.51
2019-06-07T07:50:00.237Z,13.49
2019-06-07T07:51:02.925Z,13.55
2019-06-07T07:52:00.232Z,13.55
2019-06-07T07:53:00.878Z,13.67
2019-06-07T07:54:10.087Z,13.63
2019-06-07T07:55:01.176Z,13.59
2019-06-07T07:56:00.733Z,13.70
2019-06-07T07:57:00.163Z,13.71
2019-06-07T07:58:01.796Z,13.75
2019-06-07T07:59:01.635Z,13.75
2019-06-07T08:00:36.409Z,13.84
2019-06-07T08:01:10.110Z,13.82
2019-06-07T08:02:01.101Z,13.88
2019-06-07T08:03:04.399Z,13.89
2019-06-07T08:04:00.063Z,14.03
2019-06-07T08:05:21.693Z,14.02
2019-06-07T08:06:01.044Z,14.07
2019-06-07T08:07:00.058Z,14.20
2019-06-07T08:08:01.544Z,14.24
2019-06-07T08:09:00.011Z,14.27
2019-06-07T08:10:03.578Z,14.27
2019-06-07T08:11:02.124Z,14.47
2019-06-07T08:12:02.331Z,14.50
2019-06-07T08:13:22.721Z,14.54
2019-06-07T08:14:00.980Z,14.61
2019-06-07T08:15:03.325Z,14.72
2019-06-07T08:16:08.190Z,14.78
2019-06-07T08:17:00.950Z,14.80
2019-06-07T08:18:03.959Z,14.89
2019-06-07T08:19:03.842Z,14.83
2019-06-07T08:20:02.936Z,14.98
2019-06-07T08:21:22.005Z,14.92
2019-06-07T08:22:01.911Z,15.06
2019-06-07T08:23:01.404Z,15.10
2019-06-07T08:24:03.651Z,15.10
2019-06-07T08:25:03.983Z,15.20
2019-06-07T08:26:01.181Z,15.20
2019-06-07T08:27:24.216Z,15.41
2019-06-07T08:28:00.820Z,15.57
2019-06-07T08:29:02.799Z,15.62
2019-06-07T08:30:18.397Z,15.82
2019-06-07T08:31:06.333Z,15.84
2019-06-07T08:32:00.994Z,16.02
2019-06-07T08:33:24.199Z,16.25
2019-06-07T08:34:01.030Z,16.24
2019-06-07T08:35:05.809Z,16.30
2019-06-07T08:36:16.914Z,16.39
2019-06-07T08:37:01.919Z,16.52
2019-06-07T08:38:26.380Z,16.50
2019-06-07T08:39:07.243Z,16.64
2019-06-07T08:40:01.838Z,16.61
2019-06-07T08:41:11.016Z,16.71
2019-06-07T08:42:15.196Z,16.81
2019-06-07T08:43:15.067Z,16.79
2019-06-07T08:44:14.377Z,17.06
2019-06-07T08:45:03.741Z,17.04
2019-06-07T08:46:04.425Z,17.08
2019-06-07T08:47:18.919Z,17.23
2019-06-07T08:48:05.369Z,17.31
2019-06-07T08:49:03.989Z,17.34
2019-06-07T08:50:06.686Z,17.44
2019-06-07T08:51:06.286Z,17.48
2019-06-07T08:52:09.733Z,17.55
2019-06-07T08:53:11.059Z,17.66
2019-06-07T08:54:21.178Z,17.71
2019-06-07T08:55:04.517Z,17.86
2019-06-07T08:56:08.940Z,17.89
2019-06-07T08:57:17.976Z,18.02
2019-06-07T08:58:04.584Z,18.10
2019-06-07T08:59:10.395Z,18.12
2019-06-07T09:00:14.675Z,18.26
2019-06-07T09:01:06.397Z,18.30
2019-06-07T09:02:04.233Z,18.26
2019-06-07T09:03:05.193Z,18.25
2019-06-07T09:04:06.679Z,18.35
2019-06-07T09:05:11.139Z,18.35
2019-06-07T09:06:06.582Z,18.29
2019-06-07T09:07:08.999Z,18.35
2019-06-07T09:08:23.617Z,18.41
2019-06-07T09:09:01.995Z,18.47
2019-06-07T09:10:03.463Z,18.60
2019-06-07T09:11:05.297Z,18.51
2019-06-07T09:12:08.139Z,18.50
2019-06-07T09:13:04.991Z,18.66
2019-06-07T09:14:05.366Z,18.72
2019-06-07T09:15:15.044Z,18.67
2019-06-07T09:16:04.975Z,18.78
2019-06-07T09:17:05.478Z,18.80
2019-06-07T09:19:03.938Z,18.84
2019-06-07T09:20:06.338Z,18.73
2019-06-07T09:21:01.526Z,18.88
2019-06-07T09:22:03.348Z,18.91
2019-06-07T09:23:06.715Z,18.99
2019-06-07T09:24:05.480Z,18.95
2019-06-07T09:25:05.829Z,19.11
2019-06-07T09:26:06.455Z,19.26
2019-06-07T09:27:02.536Z,19.28
2019-06-07T09:28:06.723Z,19.31
2019-06-07T09:29:01.375Z,19.44
2019-06-07T09:30:04.629Z,19.51
2019-06-07T09:31:04.186Z,19.62
2019-06-07T09:32:04.733Z,19.61
2019-06-07T09:33:01.933Z,19.66
2019-06-07T09:34:07.962Z,19.81
2019-06-07T09:35:05.393Z,19.87
2019-06-07T09:36:01.594Z,19.87
2019-06-07T09:37:10.809Z,19.94
2019-06-07T09:38:11.057Z,20.02
2019-06-07T09:39:06.261Z,19.99
2019-06-07T09:40:10.651Z,20.26
2019-06-07T09:41:02.432Z,20.08
2019-06-07T09:42:01.613Z,20.21
2019-06-07T09:43:46.747Z,20.36
2019-06-07T09:44:13.058Z,20.33
2019-06-07T09:45:01.213Z,20.35
2019-06-07T09:46:02.082Z,20.47
2019-06-07T09:47:20.246Z,20.51
2019-06-07T09:48:04.393Z,20.64
2019-06-07T09:49:28.858Z,20.55
2019-06-07T09:50:07.068Z,20.57
2019-06-07T09:51:05.863Z,20.66
2019-06-07T09:52:02.719Z,20.59
2019-06-07T09:53:10.445Z,20.70
2019-06-07T09:54:01.262Z,20.67
2019-06-07T09:55:09.443Z,20.73
2019-06-07T09:56:05.658Z,20.79
2019-06-07T09:57:04.060Z,20.87
2019-06-07T09:58:03.636Z,20.73
2019-06-07T09:59:02.972Z,20.82
2019-06-07T10:00:01.845Z,20.77
2019-06-07T10:01:05.354Z,20.87
2019-06-07T10:02:01.474Z,20.85
2019-06-07T10:03:07.927Z,20.88
2019-06-07T10:04:05.853Z,20.97
2019-06-07T10:05:01.674Z,21.01
2019-06-07T10:06:00.377Z,21.01
2019-06-07T10:07:08.099Z,21.03
2019-06-07T10:08:14.451Z,21.01
2019-06-07T10:11:00.361Z,21.28
2019-06-07T10:11:58.633Z,21.28
2019-06-07T10:12:59.512Z,21.40
2019-06-07T10:13:58.612Z,21.44
2019-06-07T10:14:58.749Z,21.52
2019-06-07T10:15:58.930Z,21.56
2019-06-07T10:16:58.831Z,21.58
2019-06-07T10:17:58.649Z,21.68
2019-06-07T10:18:59.210Z,21.64
2019-06-07T10:20:00.490Z,21.67
2019-06-07T10:20:59.303Z,21.65
2019-06-07T10:21:59.153Z,21.71
2019-06-07T10:22:59.549Z,21.75
2019-06-07T10:23:59.280Z,21.72
2019-06-07T10:24:59.685Z,21.82
2019-06-07T10:25:59.374Z,21.84
2019-06-07T10:26:59.689Z,21.90
2019-06-07T10:27:59.986Z,21.91
2019-06-07T10:28:59.664Z,21.92
2019-06-07T10:30:00.105Z,21.98
2019-06-07T10:31:00.017Z,21.92
2019-06-07T10:31:58.469Z,21.88
2019-06-07T10:32:58.423Z,21.83
2019-06-07T10:33:58.402Z,22.02
2019-06-07T10:34:58.393Z,22.00
2019-06-07T10:35:58.389Z,22.02
2019-06-07T10:36:58.430Z,22.12
2019-06-07T10:37:58.382Z,22.10
2019-06-07T10:38:58.343Z,22.14
2019-06-07T10:39:58.326Z,22.15
2019-06-07T10:40:58.316Z,22.27
2019-06-07T10:41:58.329Z,22.20
2019-06-07T10:42:58.294Z,22.31
2019-06-07T10:43:58.279Z,22.30
2019-06-07T10:44:58.281Z,22.28
2019-06-07T10:45:58.302Z,22.37
2019-06-07T10:46:59.260Z,22.45
2019-06-07T10:47:58.252Z,22.33
2019-06-07T10:48:58.251Z,22.40
2019-06-07T10:49:58.212Z,22.46
2019-06-07T10:50:58.199Z,22.58
2019-06-07T10:51:58.210Z,22.61
2019-06-07T10:52:58.179Z,22.58
2019-06-07T10:53:58.169Z,22.72
2019-06-07T10:54:58.167Z,22.67
2019-06-07T10:55:58.149Z,22.68
2019-06-07T10:56:58.152Z,22.79
2019-06-07T10:57:58.125Z,22.75
2019-06-07T10:58:58.125Z,22.76
2019-06-07T10:59:58.108Z,22.79
2019-06-07T11:00:58.093Z,22.85
2019-06-07T11:01:58.100Z,22.91
2019-06-07T11:02:58.067Z,22.86
2019-06-07T11:03:58.058Z,23.00
2019-06-07T11:04:58.092Z,23.04
2019-06-07T11:05:58.032Z,23.01
2019-06-07T11:06:58.050Z,23.10
2019-06-07T11:08:00.590Z,23.09
2019-06-07T11:08:57.998Z,23.12
2019-06-07T11:10:07.025Z,23.20
2019-06-07T11:10:58.974Z,23.20
2019-06-07T11:11:57.991Z,23.12
2019-06-07T11:12:57.977Z,23.32
2019-06-07T11:13:59.541Z,23.36
2019-06-07T11:14:57.935Z,23.32
2019-06-07T11:15:57.931Z,23.36
2019-06-07T11:16:57.928Z,23.35
2019-06-07T11:17:57.926Z,23.33
2019-06-07T11:18:58.687Z,23.31
2019-06-07T11:19:57.948Z,23.32
2019-06-07T11:20:57.948Z,23.31
2019-06-07T11:21:57.996Z,23.31
2019-06-07T11:22:57.874Z,23.35
2019-06-07T11:23:57.850Z,23.39
2019-06-07T11:24:57.851Z,23.46
2019-06-07T11:25:57.815Z,23.46
2019-06-07T11:26:57.810Z,23.50
2019-06-07T11:27:57.821Z,23.66
2019-06-07T11:28:57.805Z,23.57
2019-06-07T11:29:57.770Z,23.70
2019-06-07T11:30:57.759Z,23.61
2019-06-07T11:31:57.748Z,23.61
2019-06-07T11:32:57.761Z,23.66
2019-06-07T11:33:57.729Z,23.58
2019-06-07T11:34:57.726Z,23.61
2019-06-07T11:35:57.724Z,23.51
2019-06-07T11:36:57.706Z,23.53
2019-06-07T11:37:57.704Z,23.70
2019-06-07T11:38:57.673Z,23.60
2019-06-07T11:39:57.674Z,23.60
2019-06-07T11:40:57.667Z,23.68
2019-06-07T11:41:57.702Z,23.72
2019-06-07T11:42:57.646Z,23.78
2019-06-07T11:43:57.615Z,23.85
2019-06-07T11:44:57.606Z,23.91
2019-06-07T11:45:57.606Z,23.95
2019-06-07T11:46:57.587Z,24.00
2019-06-07T11:47:59.844Z,24.12
2019-06-07T11:48:57.606Z,24.08
2019-06-07T11:49:57.551Z,24.16
2019-06-07T11:50:57.540Z,24.12
2019-06-07T11:51:57.527Z,24.20
2019-06-07T11:52:57.518Z,24.20
2019-06-07T11:53:57.523Z,24.16
2019-06-07T11:54:57.500Z,24.15
2019-06-07T11:55:57.484Z,24.18
2019-06-07T11:56:57.487Z,24.18
2019-06-07T11:57:57.467Z,24.16
2019-06-07T11:58:57.494Z,24.13
2019-06-07T11:59:57.449Z,24.25
2019-06-07T12:00:57.439Z,24.25
2019-06-07T12:01:57.421Z,24.27
2019-06-07T12:02:57.410Z,24.22
2019-06-07T12:03:58.841Z,24.21
2019-06-07T12:04:57.381Z,24.22
2019-06-07T12:05:57.414Z,24.24
2019-06-07T12:06:57.365Z,24.25
2019-06-07T12:07:57.352Z,24.30
2019-06-07T12:08:57.378Z,24.27
2019-06-07T12:09:57.375Z,24.32
2019-06-07T12:10:57.320Z,24.40
2019-06-07T12:11:57.355Z,24.39
2019-06-07T12:12:57.372Z,24.47
2019-06-07T12:13:57.287Z,24.57
2019-06-07T12:14:57.286Z,24.55
2019-06-07T12:15:57.260Z,24.57
2019-06-07T12:16:57.254Z,24.76
2019-06-07T12:17:57.238Z,24.80
2019-06-07T12:18:57.258Z,24.84
2019-06-07T12:19:57.246Z,24.84
2019-06-07T12:20:57.209Z,24.76
2019-06-07T12:21:57.214Z,24.90
2019-06-07T12:22:57.183Z,24.77
2019-06-07T12:23:57.411Z,24.83
2019-06-07T12:24:57.193Z,24.88
2019-06-07T12:25:57.179Z,24.87
2019-06-07T12:26:57.151Z,24.85
2019-06-07T12:27:57.128Z,24.90
2019-06-07T12:28:57.155Z,24.90
2019-06-07T12:29:57.122Z,25.02
2019-06-07T12:30:57.096Z,24.96
2019-06-07T12:31:57.090Z,24.93
2019-06-07T12:32:57.084Z,25.00
2019-06-07T12:33:57.068Z,24.99
2019-06-07T12:34:57.135Z,25.03
2019-06-07T12:35:57.044Z,25.05
2019-06-07T12:36:57.031Z,25.09
2019-06-07T12:37:57.019Z,25.10
2019-06-07T12:38:57.072Z,25.13
2019-06-07T12:39:57.020Z,25.09
2019-06-07T12:40:58.108Z,25.17
2019-06-07T12:41:56.999Z,25.24
2019-06-07T12:42:56.975Z,25.24
2019-06-07T12:43:59.158Z,25.27
2019-06-07T12:44:56.944Z,25.33
2019-06-07T12:45:56.964Z,25.30
2019-06-07T12:46:56.920Z,25.40
2019-06-07T12:47:56.918Z,25.50
2019-06-07T12:48:58.485Z,25.57
2019-06-07T12:49:56.926Z,25.54
2019-06-07T12:50:56.884Z,25.55
2019-06-07T12:51:56.870Z,25.52
2019-06-07T12:52:56.855Z,25.51
2019-06-07T12:53:56.841Z,25.54
2019-06-07T12:54:56.830Z,25.52
2019-06-07T12:56:00.043Z,25.57
2019-06-07T12:56:56.885Z,25.57
2019-06-07T12:57:56.825Z,25.62
2019-06-07T12:58:56.785Z,25.64
2019-06-07T12:59:56.786Z,25.67